sensor_id;sensor_type;location;lat;lon;timestamp;temperature;humidity
15131;DHT22;7666;50.920;4.628;2022-07-21T00:01:58;19.20;99.90
15131;DHT22;7666;50.920;4.628;2022-07-21T00:04:44;19.20;99.90
15131;DHT22;7666;50.920;4.628;2022-07-21T00:07:30;19.10;99.90
15131;DHT22;7666;50.920;4.628;2022-07-21T00:10:17;19.10;99.90
15131;DHT22;7666;50.920;4.628;2022-07-21T00:13:03;19.10;99.90
15131;DHT22;7666;50.920;4.628;2022-07-21T00:15:49;19.10;99.90
15131;DHT22;7666;50.920;4.628;2022-07-21T00:18:35;19.10;99.90
15131;DHT22;7666;50.920;4.628;2022-07-21T00:21:21;19.10;99.90
15131;DHT22;7666;50.920;4.628;2022-07-21T00:24:07;19.00;99.90
15131;DHT22;7666;50.920;4.628;2022-07-21T00:26:53;19.00;99.90
15131;DHT22;7666;50.920;4.628;2022-07-21T00:29:39;19.00;99.90
15131;DHT22;7666;50.920;4.628;2022-07-21T00:32:25;19.00;99.90
15131;DHT22;7666;50.920;4.628;2022-07-21T00:35:11;19.00;99.90
15131;DHT22;7666;50.920;4.628;2022-07-21T00:37:58;19.00;99.90
15131;DHT22;7666;50.920;4.628;2022-07-21T00:40:44;19.00;99.90
15131;DHT22;7666;50.920;4.628;2022-07-21T00:43:30;19.10;99.90
15131;DHT22;7666;50.920;4.628;2022-07-21T00:46:20;19.10;99.90
15131;DHT22;7666;50.920;4.628;2022-07-21T00:49:05;19.10;99.90
15131;DHT22;7666;50.920;4.628;2022-07-21T00:51:51;19.10;99.90
15131;DHT22;7666;50.920;4.628;2022-07-21T00:54:37;19.20;99.90
15131;DHT22;7666;50.920;4.628;2022-07-21T00:57:23;19.10;99.90
15131;DHT22;7666;50.920;4.628;2022-07-21T01:00:13;19.20;99.90
15131;DHT22;7666;50.920;4.628;2022-07-21T01:03:00;19.10;99.90
15131;DHT22;7666;50.920;4.628;2022-07-21T01:05:46;19.10;99.90
15131;DHT22;7666;50.920;4.628;2022-07-21T01:08:32;19.10;99.90
15131;DHT22;7666;50.920;4.628;2022-07-21T01:11:20;19.10;99.90
15131;DHT22;7666;50.920;4.628;2022-07-21T01:14:06;19.10;99.90
15131;DHT22;7666;50.920;4.628;2022-07-21T01:16:53;19.10;99.90
15131;DHT22;7666;50.920;4.628;2022-07-21T01:19:39;19.10;99.90
15131;DHT22;7666;50.920;4.628;2022-07-21T01:22:25;19.10;99.90
15131;DHT22;7666;50.920;4.628;2022-07-21T01:25:11;19.10;99.90
15131;DHT22;7666;50.920;4.628;2022-07-21T01:27:58;19.10;99.90
15131;DHT22;7666;50.920;4.628;2022-07-21T01:30:44;19.10;99.90
15131;DHT22;7666;50.920;4.628;2022-07-21T01:33:30;19.10;99.90
15131;DHT22;7666;50.920;4.628;2022-07-21T01:36:16;19.00;99.90
15131;DHT22;7666;50.920;4.628;2022-07-21T01:39:04;19.00;99.90
15131;DHT22;7666;50.920;4.628;2022-07-21T01:42:09;19.00;99.90
15131;DHT22;7666;50.920;4.628;2022-07-21T01:44:54;19.00;99.90
15131;DHT22;7666;50.920;4.628;2022-07-21T01:47:42;18.90;99.90
15131;DHT22;7666;50.920;4.628;2022-07-21T01:50:28;19.00;99.90
15131;DHT22;7666;50.920;4.628;2022-07-21T01:53:14;18.90;99.90
15131;DHT22;7666;50.920;4.628;2022-07-21T01:56:00;18.90;99.90
15131;DHT22;7666;50.920;4.628;2022-07-21T01:58:47;18.90;99.90
15131;DHT22;7666;50.920;4.628;2022-07-21T02:01:33;18.90;99.90
15131;DHT22;7666;50.920;4.628;2022-07-21T02:04:20;18.90;99.90
15131;DHT22;7666;50.920;4.628;2022-07-21T02:07:06;18.90;99.90
15131;DHT22;7666;50.920;4.628;2022-07-21T02:09:52;18.90;99.90
15131;DHT22;7666;50.920;4.628;2022-07-21T02:12:38;18.90;99.90
15131;DHT22;7666;50.920;4.628;2022-07-21T02:15:24;18.90;99.90
15131;DHT22;7666;50.920;4.628;2022-07-21T02:18:09;18.90;99.90
15131;DHT22;7666;50.920;4.628;2022-07-21T02:20:56;18.90;99.90
15131;DHT22;7666;50.920;4.628;2022-07-21T02:23:42;18.90;99.90
15131;DHT22;7666;50.920;4.628;2022-07-21T02:26:28;18.90;99.90
15131;DHT22;7666;50.920;4.628;2022-07-21T02:29:14;18.90;99.90
15131;DHT22;7666;50.920;4.628;2022-07-21T02:32:00;18.90;99.90
15131;DHT22;7666;50.920;4.628;2022-07-21T02:34:45;18.90;99.90
15131;DHT22;7666;50.920;4.628;2022-07-21T02:37:31;18.90;99.90
15131;DHT22;7666;50.920;4.628;2022-07-21T02:40:18;18.90;99.90
15131;DHT22;7666;50.920;4.628;2022-07-21T02:43:04;18.90;99.90
15131;DHT22;7666;50.920;4.628;2022-07-21T02:45:51;18.90;99.90
15131;DHT22;7666;50.920;4.628;2022-07-21T02:48:37;18.90;99.90
15131;DHT22;7666;50.920;4.628;2022-07-21T02:51:23;18.90;99.90
15131;DHT22;7666;50.920;4.628;2022-07-21T02:54:09;18.90;99.90
15131;DHT22;7666;50.920;4.628;2022-07-21T02:56:55;18.90;99.90
15131;DHT22;7666;50.920;4.628;2022-07-21T02:59:41;18.90;99.90
15131;DHT22;7666;50.920;4.628;2022-07-21T03:02:27;18.90;99.90
15131;DHT22;7666;50.920;4.628;2022-07-21T03:05:12;18.90;99.90
15131;DHT22;7666;50.920;4.628;2022-07-21T03:07:58;18.90;99.90
15131;DHT22;7666;50.920;4.628;2022-07-21T03:10:45;18.90;99.90
15131;DHT22;7666;50.920;4.628;2022-07-21T03:13:31;18.90;99.90
15131;DHT22;7666;50.920;4.628;2022-07-21T03:16:17;18.90;99.90
15131;DHT22;7666;50.920;4.628;2022-07-21T03:19:03;18.90;99.90
15131;DHT22;7666;50.920;4.628;2022-07-21T03:21:49;18.90;99.90
15131;DHT22;7666;50.920;4.628;2022-07-21T03:24:35;18.90;99.90
15131;DHT22;7666;50.920;4.628;2022-07-21T03:27:21;18.80;99.90
15131;DHT22;7666;50.920;4.628;2022-07-21T03:30:08;18.90;99.90
15131;DHT22;7666;50.920;4.628;2022-07-21T03:32:54;18.90;99.90
15131;DHT22;7666;50.920;4.628;2022-07-21T03:35:41;18.90;99.90
15131;DHT22;7666;50.920;4.628;2022-07-21T03:38:27;18.80;99.90
15131;DHT22;7666;50.920;4.628;2022-07-21T03:41:13;18.90;99.90
15131;DHT22;7666;50.920;4.628;2022-07-21T03:43:59;18.90;99.90
15131;DHT22;7666;50.920;4.628;2022-07-21T03:46:45;18.80;99.90
15131;DHT22;7666;50.920;4.628;2022-07-21T03:49:31;18.80;99.90
15131;DHT22;7666;50.920;4.628;2022-07-21T03:52:17;18.80;99.90
15131;DHT22;7666;50.920;4.628;2022-07-21T03:55:03;18.80;99.90
15131;DHT22;7666;50.920;4.628;2022-07-21T03:58:01;18.80;99.90
15131;DHT22;7666;50.920;4.628;2022-07-21T04:00:48;18.70;99.90
15131;DHT22;7666;50.920;4.628;2022-07-21T04:03:33;18.70;99.90
15131;DHT22;7666;50.920;4.628;2022-07-21T04:06:20;18.80;99.90
15131;DHT22;7666;50.920;4.628;2022-07-21T04:09:06;18.80;99.90
15131;DHT22;7666;50.920;4.628;2022-07-21T04:11:52;18.80;99.90
15131;DHT22;7666;50.920;4.628;2022-07-21T04:14:38;18.80;99.90
15131;DHT22;7666;50.920;4.628;2022-07-21T04:17:24;18.80;99.90
15131;DHT22;7666;50.920;4.628;2022-07-21T04:20:11;18.80;99.90
15131;DHT22;7666;50.920;4.628;2022-07-21T04:22:58;18.90;99.90
15131;DHT22;7666;50.920;4.628;2022-07-21T04:25:44;18.90;99.90
15131;DHT22;7666;50.920;4.628;2022-07-21T04:28:30;19.00;99.90
15131;DHT22;7666;50.920;4.628;2022-07-21T04:31:16;19.00;99.90
15131;DHT22;7666;50.920;4.628;2022-07-21T04:34:02;19.00;99.90
15131;DHT22;7666;50.920;4.628;2022-07-21T04:36:48;19.00;99.90
15131;DHT22;7666;50.920;4.628;2022-07-21T04:39:34;19.10;99.90
15131;DHT22;7666;50.920;4.628;2022-07-21T04:42:20;19.10;99.90
15131;DHT22;7666;50.920;4.628;2022-07-21T04:45:08;19.10;99.90
15131;DHT22;7666;50.920;4.628;2022-07-21T04:47:55;19.10;99.90
15131;DHT22;7666;50.920;4.628;2022-07-21T04:50:41;19.10;99.90
15131;DHT22;7666;50.920;4.628;2022-07-21T04:53:27;19.10;99.90
15131;DHT22;7666;50.920;4.628;2022-07-21T04:56:13;19.10;99.90
15131;DHT22;7666;50.920;4.628;2022-07-21T04:58:59;19.20;99.90
15131;DHT22;7666;50.920;4.628;2022-07-21T05:01:45;19.10;99.90
15131;DHT22;7666;50.920;4.628;2022-07-21T05:04:31;19.10;99.90
15131;DHT22;7666;50.920;4.628;2022-07-21T05:07:17;19.10;99.90
15131;DHT22;7666;50.920;4.628;2022-07-21T05:10:04;19.20;99.90
15131;DHT22;7666;50.920;4.628;2022-07-21T05:12:50;19.20;99.90
15131;DHT22;7666;50.920;4.628;2022-07-21T05:15:36;19.20;99.90
15131;DHT22;7666;50.920;4.628;2022-07-21T05:18:22;19.30;99.90
15131;DHT22;7666;50.920;4.628;2022-07-21T05:21:08;19.30;99.90
15131;DHT22;7666;50.920;4.628;2022-07-21T05:23:54;19.30;99.90
15131;DHT22;7666;50.920;4.628;2022-07-21T05:26:40;19.40;99.90
15131;DHT22;7666;50.920;4.628;2022-07-21T05:29:26;19.40;99.90
15131;DHT22;7666;50.920;4.628;2022-07-21T05:32:12;19.40;99.90
15131;DHT22;7666;50.920;4.628;2022-07-21T05:34:58;19.50;99.90
15131;DHT22;7666;50.920;4.628;2022-07-21T05:37:44;19.60;99.90
15131;DHT22;7666;50.920;4.628;2022-07-21T05:40:33;19.70;99.90
15131;DHT22;7666;50.920;4.628;2022-07-21T05:43:19;19.80;99.90
15131;DHT22;7666;50.920;4.628;2022-07-21T05:46:05;19.90;99.90
15131;DHT22;7666;50.920;4.628;2022-07-21T05:48:53;19.90;99.90
15131;DHT22;7666;50.920;4.628;2022-07-21T05:51:40;19.90;99.90
15131;DHT22;7666;50.920;4.628;2022-07-21T05:54:26;19.80;99.90
15131;DHT22;7666;50.920;4.628;2022-07-21T05:57:12;19.80;99.90
15131;DHT22;7666;50.920;4.628;2022-07-21T05:59:58;19.70;99.90
15131;DHT22;7666;50.920;4.628;2022-07-21T06:02:45;19.70;99.90
15131;DHT22;7666;50.920;4.628;2022-07-21T06:05:31;19.60;99.90
15131;DHT22;7666;50.920;4.628;2022-07-21T06:08:17;19.60;99.90
15131;DHT22;7666;50.920;4.628;2022-07-21T06:11:03;19.60;99.90
15131;DHT22;7666;50.920;4.628;2022-07-21T06:13:49;19.50;99.90
15131;DHT22;7666;50.920;4.628;2022-07-21T06:16:35;19.50;99.90
15131;DHT22;7666;50.920;4.628;2022-07-21T06:19:21;19.40;99.90
15131;DHT22;7666;50.920;4.628;2022-07-21T06:22:07;19.40;99.90
15131;DHT22;7666;50.920;4.628;2022-07-21T06:24:53;19.30;99.90
15131;DHT22;7666;50.920;4.628;2022-07-21T06:27:39;19.30;99.90
15131;DHT22;7666;50.920;4.628;2022-07-21T06:30:25;19.40;99.90
15131;DHT22;7666;50.920;4.628;2022-07-21T06:33:11;19.40;99.90
15131;DHT22;7666;50.920;4.628;2022-07-21T06:35:57;19.30;99.90
15131;DHT22;7666;50.920;4.628;2022-07-21T06:38:43;19.30;99.90
15131;DHT22;7666;50.920;4.628;2022-07-21T06:41:30;19.30;99.90
15131;DHT22;7666;50.920;4.628;2022-07-21T06:44:16;19.20;99.90
15131;DHT22;7666;50.920;4.628;2022-07-21T06:47:02;19.20;99.90
15131;DHT22;7666;50.920;4.628;2022-07-21T06:49:50;19.20;99.90
15131;DHT22;7666;50.920;4.628;2022-07-21T06:52:36;19.20;99.90
15131;DHT22;7666;50.920;4.628;2022-07-21T06:55:22;19.20;99.90
15131;DHT22;7666;50.920;4.628;2022-07-21T06:58:13;19.20;99.90
15131;DHT22;7666;50.920;4.628;2022-07-21T07:01:00;19.20;99.90
15131;DHT22;7666;50.920;4.628;2022-07-21T07:03:46;19.30;99.90
15131;DHT22;7666;50.920;4.628;2022-07-21T07:06:32;19.30;99.90
15131;DHT22;7666;50.920;4.628;2022-07-21T07:09:18;19.20;99.90
15131;DHT22;7666;50.920;4.628;2022-07-21T07:12:04;19.20;99.90
15131;DHT22;7666;50.920;4.628;2022-07-21T07:14:51;19.20;99.90
15131;DHT22;7666;50.920;4.628;2022-07-21T07:17:37;19.10;99.90
15131;DHT22;7666;50.920;4.628;2022-07-21T07:20:24;19.10;99.90
15131;DHT22;7666;50.920;4.628;2022-07-21T07:23:10;19.00;99.90
15131;DHT22;7666;50.920;4.628;2022-07-21T07:25:55;19.00;99.90
15131;DHT22;7666;50.920;4.628;2022-07-21T07:28:41;19.00;99.90
15131;DHT22;7666;50.920;4.628;2022-07-21T07:31:27;19.00;99.90
15131;DHT22;7666;50.920;4.628;2022-07-21T07:34:13;19.00;99.90
15131;DHT22;7666;50.920;4.628;2022-07-21T07:37:00;18.90;99.90
15131;DHT22;7666;50.920;4.628;2022-07-21T07:39:46;18.90;99.90
15131;DHT22;7666;50.920;4.628;2022-07-21T07:42:32;18.90;99.90
15131;DHT22;7666;50.920;4.628;2022-07-21T07:45:18;18.90;99.90
15131;DHT22;7666;50.920;4.628;2022-07-21T07:48:06;18.80;99.90
15131;DHT22;7666;50.920;4.628;2022-07-21T07:50:52;18.80;99.90
15131;DHT22;7666;50.920;4.628;2022-07-21T07:53:39;18.80;99.90
15131;DHT22;7666;50.920;4.628;2022-07-21T07:56:25;18.80;99.90
15131;DHT22;7666;50.920;4.628;2022-07-21T07:59:11;18.80;99.90
15131;DHT22;7666;50.920;4.628;2022-07-21T08:01:57;18.80;99.90
15131;DHT22;7666;50.920;4.628;2022-07-21T08:04:43;18.80;99.90
15131;DHT22;7666;50.920;4.628;2022-07-21T08:07:28;18.80;99.90
15131;DHT22;7666;50.920;4.628;2022-07-21T08:10:14;18.90;99.90
15131;DHT22;7666;50.920;4.628;2022-07-21T08:13:00;18.90;99.90
15131;DHT22;7666;50.920;4.628;2022-07-21T08:15:47;18.90;99.90
15131;DHT22;7666;50.920;4.628;2022-07-21T08:18:33;19.00;99.90
15131;DHT22;7666;50.920;4.628;2022-07-21T08:21:19;19.00;99.90
15131;DHT22;7666;50.920;4.628;2022-07-21T08:24:06;19.00;99.90
15131;DHT22;7666;50.920;4.628;2022-07-21T08:26:52;19.00;99.90
15131;DHT22;7666;50.920;4.628;2022-07-21T08:29:38;19.10;99.90
15131;DHT22;7666;50.920;4.628;2022-07-21T08:32:24;19.10;99.90
15131;DHT22;7666;50.920;4.628;2022-07-21T08:35:10;19.10;99.90
15131;DHT22;7666;50.920;4.628;2022-07-21T08:38:03;19.10;99.90
15131;DHT22;7666;50.920;4.628;2022-07-21T08:40:49;19.00;99.90
15131;DHT22;7666;50.920;4.628;2022-07-21T08:43:36;19.00;99.90
15131;DHT22;7666;50.920;4.628;2022-07-21T08:46:22;19.10;99.90
15131;DHT22;7666;50.920;4.628;2022-07-21T08:49:10;19.10;99.90
15131;DHT22;7666;50.920;4.628;2022-07-21T08:51:56;19.10;99.90
15131;DHT22;7666;50.920;4.628;2022-07-21T08:54:42;19.10;99.90
15131;DHT22;7666;50.920;4.628;2022-07-21T08:57:28;19.10;99.90
15131;DHT22;7666;50.920;4.628;2022-07-21T09:00:14;19.10;99.90
15131;DHT22;7666;50.920;4.628;2022-07-21T09:03:11;19.10;99.90
15131;DHT22;7666;50.920;4.628;2022-07-21T09:06:09;19.10;99.90
15131;DHT22;7666;50.920;4.628;2022-07-21T09:08:56;19.20;99.90
15131;DHT22;7666;50.920;4.628;2022-07-21T09:11:44;19.20;99.90
15131;DHT22;7666;50.920;4.628;2022-07-21T09:14:32;19.20;99.90
15131;DHT22;7666;50.920;4.628;2022-07-21T09:17:19;19.20;99.90
15131;DHT22;7666;50.920;4.628;2022-07-21T09:20:24;19.20;99.90
15131;DHT22;7666;50.920;4.628;2022-07-21T09:23:12;19.30;99.90
15131;DHT22;7666;50.920;4.628;2022-07-21T09:25:58;19.20;99.90
15131;DHT22;7666;50.920;4.628;2022-07-21T09:28:45;19.30;99.90
15131;DHT22;7666;50.920;4.628;2022-07-21T09:31:31;19.20;99.90
15131;DHT22;7666;50.920;4.628;2022-07-21T09:34:16;19.20;99.90
15131;DHT22;7666;50.920;4.628;2022-07-21T09:37:05;19.10;99.90
15131;DHT22;7666;50.920;4.628;2022-07-21T09:39:56;19.10;99.90
15131;DHT22;7666;50.920;4.628;2022-07-21T09:42:51;19.10;99.90
15131;DHT22;7666;50.920;4.628;2022-07-21T09:45:37;19.10;99.90
15131;DHT22;7666;50.920;4.628;2022-07-21T09:48:34;19.00;99.90
15131;DHT22;7666;50.920;4.628;2022-07-21T09:54:13;19.00;99.90
15131;DHT22;7666;50.920;4.628;2022-07-21T09:56:59;19.00;99.90
15131;DHT22;7666;50.920;4.628;2022-07-21T09:59:46;19.00;99.90
15131;DHT22;7666;50.920;4.628;2022-07-21T10:02:33;18.90;99.90
15131;DHT22;7666;50.920;4.628;2022-07-21T10:05:21;18.80;99.90
15131;DHT22;7666;50.920;4.628;2022-07-21T10:08:07;18.90;99.90
15131;DHT22;7666;50.920;4.628;2022-07-21T10:10:53;18.90;99.90
15131;DHT22;7666;50.920;4.628;2022-07-21T10:13:39;19.00;99.90
15131;DHT22;7666;50.920;4.628;2022-07-21T10:16:25;19.00;99.90
15131;DHT22;7666;50.920;4.628;2022-07-21T10:25:44;19.10;99.90
15131;DHT22;7666;50.920;4.628;2022-07-21T10:28:32;19.10;99.90
15131;DHT22;7666;50.920;4.628;2022-07-21T10:31:21;19.10;99.90
15131;DHT22;7666;50.920;4.628;2022-07-21T10:34:07;19.00;99.90
15131;DHT22;7666;50.920;4.628;2022-07-21T10:36:53;19.00;99.90
15131;DHT22;7666;50.920;4.628;2022-07-21T10:39:39;19.10;99.90
15131;DHT22;7666;50.920;4.628;2022-07-21T10:42:25;19.20;99.90
15131;DHT22;7666;50.920;4.628;2022-07-21T10:51:25;19.80;99.90
15131;DHT22;7666;50.920;4.628;2022-07-21T10:54:20;19.90;99.90
15131;DHT22;7666;50.920;4.628;2022-07-21T10:57:25;19.80;99.90
15131;DHT22;7666;50.920;4.628;2022-07-21T11:11:57;20.40;99.90
15131;DHT22;7666;50.920;4.628;2022-07-21T11:14:46;20.40;99.90
15131;DHT22;7666;50.920;4.628;2022-07-21T11:17:36;20.30;99.90
15131;DHT22;7666;50.920;4.628;2022-07-21T11:20:23;20.30;99.90
15131;DHT22;7666;50.920;4.628;2022-07-21T11:23:09;20.20;99.90
15131;DHT22;7666;50.920;4.628;2022-07-21T11:25:55;20.30;99.90
15131;DHT22;7666;50.920;4.628;2022-07-21T11:28:42;20.30;99.90
15131;DHT22;7666;50.920;4.628;2022-07-21T11:31:28;20.40;99.90
15131;DHT22;7666;50.920;4.628;2022-07-21T11:34:14;20.40;99.90
15131;DHT22;7666;50.920;4.628;2022-07-21T11:37:02;20.20;99.90
15131;DHT22;7666;50.920;4.628;2022-07-21T11:39:48;20.00;99.90
15131;DHT22;7666;50.920;4.628;2022-07-21T11:42:35;19.80;99.90
15131;DHT22;7666;50.920;4.628;2022-07-21T11:45:23;19.60;99.90
15131;DHT22;7666;50.920;4.628;2022-07-21T11:48:11;19.50;99.90
15131;DHT22;7666;50.920;4.628;2022-07-21T11:51:02;19.30;99.90
15131;DHT22;7666;50.920;4.628;2022-07-21T11:53:48;19.20;99.90
15131;DHT22;7666;50.920;4.628;2022-07-21T11:56:38;19.10;99.90
15131;DHT22;7666;50.920;4.628;2022-07-21T11:59:25;19.10;99.90
15131;DHT22;7666;50.920;4.628;2022-07-21T12:02:14;19.00;99.90
15131;DHT22;7666;50.920;4.628;2022-07-21T12:05:05;19.10;99.90
15131;DHT22;7666;50.920;4.628;2022-07-21T12:07:51;19.10;99.90
15131;DHT22;7666;50.920;4.628;2022-07-21T12:10:39;19.20;99.90
15131;DHT22;7666;50.920;4.628;2022-07-21T12:13:25;19.40;99.90
15131;DHT22;7666;50.920;4.628;2022-07-21T12:16:11;19.50;99.90
15131;DHT22;7666;50.920;4.628;2022-07-21T12:19:15;19.60;99.90
15131;DHT22;7666;50.920;4.628;2022-07-21T12:22:03;19.70;99.90
15131;DHT22;7666;50.920;4.628;2022-07-21T12:24:51;19.70;99.90
15131;DHT22;7666;50.920;4.628;2022-07-21T12:27:40;19.70;99.90
15131;DHT22;7666;50.920;4.628;2022-07-21T12:30:33;19.50;99.90
15131;DHT22;7666;50.920;4.628;2022-07-21T12:33:29;19.30;99.90
15131;DHT22;7666;50.920;4.628;2022-07-21T12:36:15;19.30;99.90
15131;DHT22;7666;50.920;4.628;2022-07-21T12:39:13;19.20;99.90
15131;DHT22;7666;50.920;4.628;2022-07-21T12:42:00;19.20;99.90
15131;DHT22;7666;50.920;4.628;2022-07-21T12:44:46;19.20;99.90
15131;DHT22;7666;50.920;4.628;2022-07-21T12:47:32;19.30;99.90
15131;DHT22;7666;50.920;4.628;2022-07-21T12:50:18;19.30;99.90
15131;DHT22;7666;50.920;4.628;2022-07-21T12:53:05;19.30;99.90
15131;DHT22;7666;50.920;4.628;2022-07-21T12:55:51;19.20;99.90
15131;DHT22;7666;50.920;4.628;2022-07-21T12:58:38;19.10;99.90
15131;DHT22;7666;50.920;4.628;2022-07-21T13:01:25;19.10;99.90
15131;DHT22;7666;50.920;4.628;2022-07-21T13:04:12;19.00;99.90
15131;DHT22;7666;50.920;4.628;2022-07-21T13:06:57;19.00;99.90
15131;DHT22;7666;50.920;4.628;2022-07-21T13:09:43;19.00;99.90
15131;DHT22;7666;50.920;4.628;2022-07-21T13:12:31;19.00;99.90
15131;DHT22;7666;50.920;4.628;2022-07-21T13:15:17;19.00;99.90
15131;DHT22;7666;50.920;4.628;2022-07-21T13:18:03;19.10;99.90
15131;DHT22;7666;50.920;4.628;2022-07-21T13:20:51;19.20;99.90
15131;DHT22;7666;50.920;4.628;2022-07-21T13:23:37;19.30;99.90
15131;DHT22;7666;50.920;4.628;2022-07-21T13:26:23;19.40;99.90
15131;DHT22;7666;50.920;4.628;2022-07-21T13:29:10;19.70;99.90
15131;DHT22;7666;50.920;4.628;2022-07-21T13:31:56;19.80;99.90
15131;DHT22;7666;50.920;4.628;2022-07-21T13:34:42;20.00;99.90
15131;DHT22;7666;50.920;4.628;2022-07-21T13:37:28;20.10;99.90
15131;DHT22;7666;50.920;4.628;2022-07-21T13:40:13;20.00;99.90
15131;DHT22;7666;50.920;4.628;2022-07-21T13:42:59;19.80;99.90
15131;DHT22;7666;50.920;4.628;2022-07-21T13:45:45;19.70;99.90
15131;DHT22;7666;50.920;4.628;2022-07-21T13:48:31;19.60;99.90
15131;DHT22;7666;50.920;4.628;2022-07-21T13:51:19;19.40;99.90
15131;DHT22;7666;50.920;4.628;2022-07-21T13:54:05;19.40;99.90
15131;DHT22;7666;50.920;4.628;2022-07-21T13:56:51;19.30;99.90
15131;DHT22;7666;50.920;4.628;2022-07-21T13:59:37;19.30;99.90
15131;DHT22;7666;50.920;4.628;2022-07-21T14:02:23;19.20;99.90
15131;DHT22;7666;50.920;4.628;2022-07-21T14:05:09;19.20;99.90
15131;DHT22;7666;50.920;4.628;2022-07-21T14:07:55;19.30;99.90
15131;DHT22;7666;50.920;4.628;2022-07-21T14:10:42;19.30;99.90
15131;DHT22;7666;50.920;4.628;2022-07-21T14:13:28;19.40;99.90
15131;DHT22;7666;50.920;4.628;2022-07-21T14:16:14;19.50;99.90
15131;DHT22;7666;50.920;4.628;2022-07-21T14:19:00;19.50;99.90
15131;DHT22;7666;50.920;4.628;2022-07-21T14:21:46;19.50;99.90
15131;DHT22;7666;50.920;4.628;2022-07-21T14:24:33;19.50;99.90
15131;DHT22;7666;50.920;4.628;2022-07-21T14:27:37;19.50;99.90
15131;DHT22;7666;50.920;4.628;2022-07-21T14:30:26;19.70;99.90
15131;DHT22;7666;50.920;4.628;2022-07-21T14:33:12;19.80;99.90
15131;DHT22;7666;50.920;4.628;2022-07-21T14:35:58;19.90;99.90
15131;DHT22;7666;50.920;4.628;2022-07-21T14:38:44;19.90;99.90
15131;DHT22;7666;50.920;4.628;2022-07-21T14:41:30;19.80;99.90
15131;DHT22;7666;50.920;4.628;2022-07-21T14:44:16;19.70;99.90
15131;DHT22;7666;50.920;4.628;2022-07-21T14:47:02;19.80;99.90
15131;DHT22;7666;50.920;4.628;2022-07-21T14:49:48;19.70;99.90
15131;DHT22;7666;50.920;4.628;2022-07-21T14:52:34;19.80;99.90
15131;DHT22;7666;50.920;4.628;2022-07-21T14:55:20;19.70;99.90
15131;DHT22;7666;50.920;4.628;2022-07-21T14:58:08;19.70;99.90
15131;DHT22;7666;50.920;4.628;2022-07-21T15:00:54;19.60;99.90
15131;DHT22;7666;50.920;4.628;2022-07-21T15:03:40;19.60;99.90
15131;DHT22;7666;50.920;4.628;2022-07-21T15:06:26;19.60;99.90
15131;DHT22;7666;50.920;4.628;2022-07-21T15:09:12;19.70;99.90
15131;DHT22;7666;50.920;4.628;2022-07-21T15:11:58;19.80;99.90
15131;DHT22;7666;50.920;4.628;2022-07-21T15:14:44;20.00;99.90
15131;DHT22;7666;50.920;4.628;2022-07-21T15:17:30;20.20;99.90
15131;DHT22;7666;50.920;4.628;2022-07-21T15:20:16;20.10;99.90
15131;DHT22;7666;50.920;4.628;2022-07-21T15:23:02;20.00;99.90
15131;DHT22;7666;50.920;4.628;2022-07-21T15:25:48;19.90;99.90
15131;DHT22;7666;50.920;4.628;2022-07-21T15:28:34;20.00;99.90
15131;DHT22;7666;50.920;4.628;2022-07-21T15:31:20;20.20;99.90
15131;DHT22;7666;50.920;4.628;2022-07-21T15:34:06;20.40;99.90
15131;DHT22;7666;50.920;4.628;2022-07-21T15:36:52;20.50;99.90
15131;DHT22;7666;50.920;4.628;2022-07-21T15:39:38;20.60;99.90
15131;DHT22;7666;50.920;4.628;2022-07-21T15:42:25;20.80;99.90
15131;DHT22;7666;50.920;4.628;2022-07-21T15:45:12;20.80;99.90
15131;DHT22;7666;50.920;4.628;2022-07-21T15:47:58;20.60;99.90
15131;DHT22;7666;50.920;4.628;2022-07-21T15:50:46;20.20;99.90
15131;DHT22;7666;50.920;4.628;2022-07-21T15:53:32;19.90;99.90
15131;DHT22;7666;50.920;4.628;2022-07-21T15:56:18;19.70;99.90
15131;DHT22;7666;50.920;4.628;2022-07-21T15:59:04;19.70;99.90
15131;DHT22;7666;50.920;4.628;2022-07-21T16:02:10;19.80;99.90
15131;DHT22;7666;50.920;4.628;2022-07-21T16:04:56;19.90;99.90
15131;DHT22;7666;50.920;4.628;2022-07-21T16:07:43;20.00;99.90
15131;DHT22;7666;50.920;4.628;2022-07-21T16:10:29;20.10;99.90
15131;DHT22;7666;50.920;4.628;2022-07-21T16:13:15;20.00;99.90
15131;DHT22;7666;50.920;4.628;2022-07-21T16:16:01;20.00;99.90
15131;DHT22;7666;50.920;4.628;2022-07-21T16:18:47;20.20;99.90
15131;DHT22;7666;50.920;4.628;2022-07-21T16:21:33;20.20;99.90
15131;DHT22;7666;50.920;4.628;2022-07-21T16:24:19;20.20;99.90
15131;DHT22;7666;50.920;4.628;2022-07-21T16:27:06;20.10;99.90
15131;DHT22;7666;50.920;4.628;2022-07-21T16:29:52;20.00;99.90
15131;DHT22;7666;50.920;4.628;2022-07-21T16:32:39;20.00;99.90
15131;DHT22;7666;50.920;4.628;2022-07-21T16:35:25;20.00;99.90
15131;DHT22;7666;50.920;4.628;2022-07-21T16:38:11;19.90;99.90
15131;DHT22;7666;50.920;4.628;2022-07-21T16:40:57;19.90;99.90
15131;DHT22;7666;50.920;4.628;2022-07-21T16:43:43;20.00;99.90
15131;DHT22;7666;50.920;4.628;2022-07-21T16:46:29;20.00;99.90
15131;DHT22;7666;50.920;4.628;2022-07-21T16:49:15;20.00;99.90
15131;DHT22;7666;50.920;4.628;2022-07-21T16:52:01;20.00;99.90
15131;DHT22;7666;50.920;4.628;2022-07-21T16:54:48;20.00;99.90
15131;DHT22;7666;50.920;4.628;2022-07-21T16:57:34;20.00;99.90
15131;DHT22;7666;50.920;4.628;2022-07-21T17:00:20;20.00;99.90
15131;DHT22;7666;50.920;4.628;2022-07-21T17:03:06;19.90;99.90
15131;DHT22;7666;50.920;4.628;2022-07-21T17:05:51;19.90;99.90
15131;DHT22;7666;50.920;4.628;2022-07-21T17:08:37;19.70;99.90
15131;DHT22;7666;50.920;4.628;2022-07-21T17:11:23;19.70;99.90
15131;DHT22;7666;50.920;4.628;2022-07-21T17:14:09;19.70;99.90
15131;DHT22;7666;50.920;4.628;2022-07-21T17:16:57;19.70;99.90
15131;DHT22;7666;50.920;4.628;2022-07-21T17:19:43;19.70;99.90
15131;DHT22;7666;50.920;4.628;2022-07-21T17:22:29;19.70;99.90
15131;DHT22;7666;50.920;4.628;2022-07-21T17:25:15;19.70;99.90
15131;DHT22;7666;50.920;4.628;2022-07-21T17:28:01;19.60;99.90
15131;DHT22;7666;50.920;4.628;2022-07-21T17:30:47;19.60;99.90
15131;DHT22;7666;50.920;4.628;2022-07-21T17:33:33;19.50;99.90
15131;DHT22;7666;50.920;4.628;2022-07-21T17:36:19;19.40;99.90
15131;DHT22;7666;50.920;4.628;2022-07-21T17:39:05;19.40;99.90
15131;DHT22;7666;50.920;4.628;2022-07-21T17:41:51;19.30;99.90
15131;DHT22;7666;50.920;4.628;2022-07-21T17:44:37;19.30;99.90
15131;DHT22;7666;50.920;4.628;2022-07-21T17:47:23;19.30;99.90
15131;DHT22;7666;50.920;4.628;2022-07-21T17:50:09;19.20;99.90
15131;DHT22;7666;50.920;4.628;2022-07-21T17:52:55;19.20;99.90
15131;DHT22;7666;50.920;4.628;2022-07-21T17:55:41;19.20;99.90
15131;DHT22;7666;50.920;4.628;2022-07-21T17:58:27;19.30;99.90
15131;DHT22;7666;50.920;4.628;2022-07-21T18:01:28;19.20;99.90
15131;DHT22;7666;50.920;4.628;2022-07-21T18:04:14;19.20;99.90
15131;DHT22;7666;50.920;4.628;2022-07-21T18:07:00;19.20;99.90
15131;DHT22;7666;50.920;4.628;2022-07-21T18:09:46;19.20;99.90
15131;DHT22;7666;50.920;4.628;2022-07-21T18:12:32;19.20;99.90
15131;DHT22;7666;50.920;4.628;2022-07-21T18:15:18;19.10;99.90
15131;DHT22;7666;50.920;4.628;2022-07-21T18:18:04;19.10;99.90